Time,TemperatureF,DewpointF,PressureIn,WindDirection,WindDirectionDegrees,WindSpeedMPH,WindSpeedGustMPH,Humidity,HourlyPrecipIn,Conditions,Clouds,dailyrainin,SolarRadiationWatts/m^2,SoftwareType,DateUTC
2013-02-07 00:02:00,62.0,57.0,-100.00,SE,140,8.0,17.0,85,0.00,,,-99.99,0.000000,,2013-02-07 06:02:00,
2013-02-07 00:32:00,62.0,57.0,-100.00,SSE,154,10.0,17.0,85,0.00,,,0.01,0.000000,,2013-02-07 06:32:00,
2013-02-07 00:43:00,62.0,57.0,-100.00,SSE,154,10.0,17.0,85,0.00,,,0.01,0.000000,,2013-02-07 06:43:00,
2013-02-07 00:52:00,62.0,57.0,-100.00,SSE,154,10.0,17.0,85,0.00,,,0.01,0.000000,,2013-02-07 06:52:00,
2013-02-07 01:01:00,62.0,57.0,-100.00,SSE,154,10.0,17.0,85,0.00,,,0.01,0.000000,,2013-02-07 07:01:00,
2013-02-07 01:32:00,61.0,56.0,-100.00,SSE,160,9.0,19.0,85,0.00,,,0.01,0.000000,,2013-02-07 07:32:00,
2013-02-07 01:42:00,61.0,56.0,-100.00,SSE,160,9.0,19.0,85,0.00,,,0.01,0.000000,,2013-02-07 07:42:00,
2013-02-07 01:52:00,61.0,56.0,-100.00,SSE,160,9.0,19.0,85,0.00,,,0.01,0.000000,,2013-02-07 07:52:00,
2013-02-07 02:01:00,61.0,56.0,-100.00,SSE,160,9.0,19.0,85,0.00,,,0.01,0.000000,,2013-02-07 08:01:00,
2013-02-07 02:32:00,61.0,56.0,-100.00,SSE,162,8.0,16.0,84,0.00,,,0.01,0.000000,,2013-02-07 08:32:00,
2013-02-07 02:42:00,61.0,56.0,-100.00,SSE,162,8.0,16.0,84,0.00,,,0.01,0.000000,,2013-02-07 08:42:00,
2013-02-07 02:52:00,61.0,56.0,-100.00,SSE,162,8.0,16.0,84,0.00,,,0.01,0.000000,,2013-02-07 08:52:00,
2013-02-07 03:02:00,61.0,56.0,-100.00,SSE,162,8.0,16.0,84,0.00,,,0.01,0.000000,,2013-02-07 09:02:00,
2013-02-07 03:32:00,60.0,55.0,-100.00,SSE,160,9.0,16.0,85,0.00,,,0.01,0.000000,,2013-02-07 09:32:00,
2013-02-07 03:42:00,60.0,55.0,-100.00,SSE,160,9.0,16.0,85,0.00,,,0.01,0.000000,,2013-02-07 09:42:00,
2013-02-07 03:52:00,60.0,55.0,-100.00,SSE,160,9.0,16.0,85,0.00,,,0.01,0.000000,,2013-02-07 09:52:00,
2013-02-07 04:01:00,60.0,55.0,-100.00,SSE,160,9.0,16.0,85,0.00,,,0.01,0.000000,,2013-02-07 10:01:00,
2013-02-07 04:32:00,60.0,56.0,-100.00,SSE,162,9.0,14.0,86,0.00,,,0.01,0.000000,,2013-02-07 10:32:00,
2013-02-07 04:42:00,60.0,56.0,-100.00,SSE,162,9.0,14.0,86,0.00,,,0.01,0.000000,,2013-02-07 10:42:00,
2013-02-07 04:52:00,60.0,56.0,-100.00,SSE,162,9.0,14.0,86,0.00,,,0.01,0.000000,,2013-02-07 10:52:00,
2013-02-07 05:01:00,60.0,56.0,-100.00,SSE,162,9.0,14.0,86,0.00,,,0.01,0.000000,,2013-02-07 11:01:00,
2013-02-07 05:32:00,60.0,55.0,-100.00,South,171,7.0,14.0,85,0.00,,,0.01,0.000000,,2013-02-07 11:32:00,
2013-02-07 05:44:00,60.0,55.0,-100.00,South,171,7.0,14.0,85,0.00,,,0.01,0.000000,,2013-02-07 11:44:00,
2013-02-07 05:52:00,60.0,55.0,-100.00,South,171,7.0,14.0,85,0.00,,,0.01,0.000000,,2013-02-07 11:52:00,
2013-02-07 06:02:00,60.0,55.0,-100.00,South,171,7.0,14.0,85,0.00,,,0.01,0.000000,,2013-02-07 12:02:00,
2013-02-07 06:33:00,59.0,56.0,-100.00,South,190,8.0,18.0,89,0.00,,,0.01,0.000000,,2013-02-07 12:33:00,
2013-02-07 06:42:00,59.0,56.0,-100.00,South,190,8.0,18.0,89,0.00,,,0.01,0.000000,,2013-02-07 12:42:00,
2013-02-07 06:53:00,59.0,56.0,-100.00,South,190,8.0,18.0,89,0.00,,,0.01,0.000000,,2013-02-07 12:53:00,
2013-02-07 07:03:00,59.0,56.0,-100.00,South,190,8.0,18.0,89,0.00,,,0.01,0.000000,,2013-02-07 13:03:00,
2013-02-07 07:32:00,59.0,56.0,-100.00,South,181,7.0,14.0,89,0.00,,,0.01,0.000000,,2013-02-07 13:32:00,
2013-02-07 07:42:00,59.0,56.0,-100.00,South,181,7.0,14.0,89,0.00,,,0.01,0.000000,,2013-02-07 13:42:00,
2013-02-07 07:52:00,59.0,56.0,-100.00,South,181,7.0,14.0,89,0.00,,,0.01,0.000000,,2013-02-07 13:52:00,
2013-02-07 08:01:00,59.0,56.0,-100.00,South,181,7.0,14.0,89,0.00,,,0.01,0.000000,,2013-02-07 14:01:00,
2013-02-07 08:32:00,59.0,55.0,-100.00,South,171,8.0,14.0,88,0.00,,,0.01,7.000000,,2013-02-07 14:32:00,
2013-02-07 08:42:00,59.0,55.0,-100.00,South,171,8.0,14.0,88,0.00,,,0.01,7.000000,,2013-02-07 14:42:00,
2013-02-07 08:52:00,59.0,55.0,-100.00,South,171,8.0,14.0,88,0.00,,,0.01,7.000000,,2013-02-07 14:52:00,
2013-02-07 09:02:00,59.0,55.0,-100.00,South,171,8.0,14.0,88,0.00,,,0.01,7.000000,,2013-02-07 15:02:00,
2013-02-07 09:32:00,62.0,58.0,-100.00,South,180,7.0,15.0,86,0.00,,,0.01,57.000000,,2013-02-07 15:32:00,
2013-02-07 09:42:00,62.0,58.0,-100.00,South,180,7.0,15.0,86,0.00,,,0.01,57.000000,,2013-02-07 15:42:00,
2013-02-07 09:52:00,62.0,58.0,-100.00,South,180,7.0,15.0,86,0.00,,,0.01,57.000000,,2013-02-07 15:52:00,
2013-02-07 10:01:00,62.0,58.0,-100.00,South,180,7.0,15.0,86,0.00,,,0.01,57.000000,,2013-02-07 16:01:00,
2013-02-07 10:32:00,66.0,57.0,-100.00,South,191,11.0,17.0,74,0.00,,,-99.99,373.000000,,2013-02-07 16:32:00,
2013-02-07 10:42:00,66.0,57.0,-100.00,South,191,11.0,17.0,74,0.00,,,-99.99,373.000000,,2013-02-07 16:42:00,
2013-02-07 10:52:00,66.0,57.0,-100.00,South,191,11.0,17.0,74,0.00,,,-99.99,373.000000,,2013-02-07 16:52:00,
2013-02-07 11:01:00,66.0,57.0,-100.00,South,191,11.0,17.0,74,0.00,,,-99.99,373.000000,,2013-02-07 17:01:00,
2013-02-07 11:32:00,69.0,58.0,-100.00,SSW,209,10.0,18.0,67,0.00,,,0.00,539.000000,,2013-02-07 17:32:00,
2013-02-07 11:43:00,69.0,58.0,-100.00,SSW,209,10.0,18.0,67,0.00,,,0.00,539.000000,,2013-02-07 17:43:00,
2013-02-07 11:52:00,69.0,58.0,-100.00,SSW,209,10.0,18.0,67,0.00,,,0.00,539.000000,,2013-02-07 17:52:00,
2013-02-07 12:01:00,69.0,58.0,-100.00,SSW,209,10.0,18.0,67,0.00,,,0.00,539.000000,,2013-02-07 18:01:00,
2013-02-07 12:32:00,73.0,58.0,-100.00,SW,215,9.0,19.0,60,0.00,,,0.00,568.000000,,2013-02-07 18:32:00,
2013-02-07 12:42:00,73.0,58.0,-100.00,SW,215,9.0,19.0,60,0.00,,,0.00,568.000000,,2013-02-07 18:42:00,
2013-02-07 12:52:00,73.0,58.0,-100.00,SW,215,9.0,19.0,60,0.00,,,0.00,568.000000,,2013-02-07 18:52:00,
2013-02-07 13:01:00,73.0,58.0,-100.00,SW,215,9.0,19.0,60,0.00,,,0.00,568.000000,,2013-02-07 19:01:00,
2013-02-07 13:32:00,77.0,56.0,-100.00,SW,221,11.0,20.0,49,0.00,,,0.00,751.000000,,2013-02-07 19:32:00,
2013-02-07 13:42:00,77.0,56.0,-100.00,SW,221,11.0,20.0,49,0.00,,,0.00,751.000000,,2013-02-07 19:42:00,
2013-02-07 13:52:00,77.0,56.0,-100.00,SW,221,11.0,20.0,49,0.00,,,0.00,751.000000,,2013-02-07 19:52:00,
2013-02-07 14:01:00,77.0,56.0,-100.00,SW,221,11.0,20.0,49,0.00,,,0.00,751.000000,,2013-02-07 20:01:00,
2013-02-07 14:32:00,80.0,53.0,-100.00,WSW,239,9.0,20.0,40,0.00,,,0.00,733.000000,,2013-02-07 20:32:00,
2013-02-07 14:42:00,80.0,53.0,-100.00,WSW,239,9.0,20.0,40,0.00,,,0.00,733.000000,,2013-02-07 20:42:00,
2013-02-07 14:52:00,80.0,53.0,-100.00,WSW,239,9.0,20.0,40,0.00,,,0.00,733.000000,,2013-02-07 20:52:00,
2013-02-07 15:02:00,80.0,53.0,-100.00,WSW,239,9.0,20.0,40,0.00,,,0.00,733.000000,,2013-02-07 21:02:00,
2013-02-07 15:32:00,79.0,50.0,-100.00,West,277,9.0,17.0,36,0.00,,,0.00,667.000000,,2013-02-07 21:32:00,
2013-02-07 15:42:00,79.0,50.0,-100.00,West,277,9.0,17.0,36,0.00,,,0.00,667.000000,,2013-02-07 21:42:00,
2013-02-07 15:52:00,79.0,50.0,-100.00,West,277,9.0,17.0,36,0.00,,,0.00,667.000000,,2013-02-07 21:52:00,
2013-02-07 16:02:00,79.0,50.0,-100.00,West,277,9.0,17.0,36,0.00,,,0.00,667.000000,,2013-02-07 22:02:00,
2013-02-07 16:32:00,76.0,41.0,-100.00,WNW,283,7.0,16.0,28,0.00,,,0.00,508.000000,,2013-02-07 22:32:00,
2013-02-07 16:42:00,76.0,41.0,-100.00,WNW,283,7.0,16.0,28,0.00,,,0.00,508.000000,,2013-02-07 22:42:00,
2013-02-07 16:52:00,76.0,41.0,-100.00,WNW,283,7.0,16.0,28,0.00,,,0.00,508.000000,,2013-02-07 22:52:00,
2013-02-07 17:01:00,76.0,41.0,-100.00,WNW,283,7.0,16.0,28,0.00,,,0.00,508.000000,,2013-02-07 23:01:00,
2013-02-07 17:32:00,73.0,47.0,-100.00,NW,305,7.0,15.0,40,0.00,,,0.00,304.000000,,2013-02-07 23:32:00,
2013-02-07 17:42:00,73.0,47.0,-100.00,NW,305,7.0,15.0,40,0.00,,,0.00,304.000000,,2013-02-07 23:42:00,
2013-02-07 17:52:00,73.0,47.0,-100.00,NW,305,7.0,15.0,40,0.00,,,0.00,304.000000,,2013-02-07 23:52:00,
2013-02-07 18:01:00,73.0,47.0,-100.00,NW,305,7.0,15.0,40,0.00,,,0.00,304.000000,,2013-02-08 00:01:00,
2013-02-07 20:32:00,59.0,48.0,-100.00,NNW,332,11.0,23.0,67,-99.99,,,0.00,0.000000,,2013-02-08 02:32:00,
2013-02-07 20:42:00,59.0,48.0,-100.00,NNW,332,11.0,23.0,67,-99.99,,,0.00,0.000000,,2013-02-08 02:42:00,
2013-02-07 20:52:00,59.0,48.0,-100.00,NNW,332,11.0,23.0,67,-99.99,,,0.00,0.000000,,2013-02-08 02:52:00,
2013-02-07 21:01:00,59.0,48.0,-100.00,NNW,332,11.0,23.0,67,-99.99,,,0.00,0.000000,,2013-02-08 03:01:00,
2013-02-07 21:32:00,57.0,47.0,-100.00,NNW,337,10.0,20.0,69,0.00,,,0.00,0.000000,,2013-02-08 03:32:00,
2013-02-07 21:42:00,57.0,47.0,-100.00,NNW,337,10.0,20.0,69,0.00,,,0.00,0.000000,,2013-02-08 03:42:00,
2013-02-07 21:52:00,57.0,47.0,-100.00,NNW,337,10.0,20.0,69,0.00,,,0.00,0.000000,,2013-02-08 03:52:00,
2013-02-07 22:01:00,57.0,47.0,-100.00,NNW,337,10.0,20.0,69,0.00,,,0.00,0.000000,,2013-02-08 04:01:00,
2013-02-07 22:32:00,57.0,47.0,-100.00,NNW,332,10.0,19.0,70,0.00,,,0.00,0.000000,,2013-02-08 04:32:00,
2013-02-07 22:42:00,57.0,47.0,-100.00,NNW,332,10.0,19.0,70,0.00,,,0.00,0.000000,,2013-02-08 04:42:00,
2013-02-07 22:52:00,57.0,47.0,-100.00,NNW,332,10.0,19.0,70,0.00,,,0.00,0.000000,,2013-02-08 04:52:00,
2013-02-07 23:02:00,57.0,47.0,-100.00,NNW,332,10.0,19.0,70,0.00,,,0.00,0.000000,,2013-02-08 05:02:00,
2013-02-07 23:32:00,56.0,47.0,-100.00,NNW,335,10.0,17.0,72,0.00,,,0.00,0.000000,,2013-02-08 05:32:00,
2013-02-07 23:42:00,56.0,47.0,-100.00,NNW,335,10.0,17.0,72,0.00,,,0.00,0.000000,,2013-02-08 05:42:00,
2013-02-07 23:52:00,56.0,47.0,-100.00,NNW,335,10.0,17.0,72,0.00,,,0.00,0.000000,,2013-02-08 05:52:00,